Time;durP1;ratioP1;P1;durP2;ratioP2;P2;SDS_P1;SDS_P2;PMS_P1;PMS_P2;Temp;Humidity;BMP_temperature;BMP_pressure;BME280_temperature;BME280_humidity;BME280_pressure;Samples;Min_cycle;Max_cycle;Signal;HPM_P1;HPM_P2
2023/01/31 00:00:16;;;;;;;;;;;;;;;;;;5090796;28;20003;-68
2023/01/31 00:02:42;;;;;;;;;;;;;;;;;;5091380;28;19985;-67
2023/01/31 00:05:08;;;;;;;;;;;;;;;;;;5091429;28;19908;-68
2023/01/31 00:07:34;;;;;;;;;;;;;;;;;;5091259;28;19908;-68
2023/01/31 00:10:00;;;;;;;;;;;;;;;;;;5090890;28;19908;-68
2023/01/31 00:12:26;;;;;;;;;;;;;;;;;;5091411;28;20018;-69
2023/01/31 00:14:52;;;;;;;;;;;;;;;;;;5090720;28;19933;-68
2023/01/31 00:17:17;;;;;;;;;;;;;;;;;;5090854;28;20360;-67
2023/01/31 00:19:43;;;;;;;;;;;;;;;;;;5090852;28;19909;-67
2023/01/31 00:22:09;;;;;;;;;;;;;;;;;;5091246;28;20545;-66
2023/01/31 00:24:35;;;;;;;;;;;;;;;;;;5091207;28;19909;-64
2023/01/31 00:27:01;;;;;;;;;;;;;;;;;;5090773;28;20284;-67
2023/01/31 00:29:27;;;;;;;;;;;;;;;;;;5090916;28;19912;-67
2023/01/31 00:31:53;;;;;;;;;;;;;;;;;;5090766;28;20303;-67
2023/01/31 00:34:19;;;;;;;;;;;;;;;;;;5090609;28;19924;-69
2023/01/31 00:36:45;;;;;;;;;;;;;;;;;;5090356;28;19926;-69
2023/01/31 00:39:10;;;;;;;;;;;;;;;;;;5090459;28;19934;-69
2023/01/31 00:41:36;;;;;;;;;;;;;;;;;;5090545;28;19908;-69
2023/01/31 00:44:02;;;;;;;;;;;;;;;;;;5090548;28;19916;-68
2023/01/31 00:46:28;;;;;;;;;;;;;;;;;;5090681;28;19912;-69
2023/01/31 00:48:55;;;;;;;;;;;;;;;;;;5090333;28;20007;-68
2023/01/31 00:51:21;;;;;;;;;;;;;;;;;;5090345;28;19908;-69
2023/01/31 00:53:46;;;;;;;;;;;;;;;;;;5090322;28;19915;-70
2023/01/31 00:56:12;;;;;;;;;;;;;;;;;;5090039;28;19959;-70
2023/01/31 00:58:38;;;;;;;;;;;;;;;;;;5089795;28;19920;-71
2023/01/31 01:01:04;;;;;;;;;;;;;;;;;;5090663;28;19920;-70
2023/01/31 01:03:30;;;;;;;;;;;;;;;;;;5090014;28;19912;-69
2023/01/31 01:05:56;;;;;;;;;;;;;;;;;;5089849;28;19916;-70
2023/01/31 01:08:22;;;;;;;;;;;;;;;;;;5089644;28;19919;-69
2023/01/31 01:10:48;;;;;;;;;;;;;;;;;;5089795;28;19914;-71
2023/01/31 01:13:13;;;;;;;;;;;;;;;;;;5089428;28;19961;-71
2023/01/31 01:15:39;;;;;;;;;;;;;;;;;;5089841;28;19954;-68
2023/01/31 01:18:05;;;;;;;;;;;;;;;;;;5089688;28;19920;-70
2023/01/31 01:20:31;;;;;;;;;;;;;;;;;;5089892;28;19908;-68
2023/01/31 01:22:57;;;;;;;;;;;;;;;;;;5089906;28;19943;-69
2023/01/31 01:25:23;;;;;;;;;;;;;;;;;;5089534;28;19912;-68
2023/01/31 01:27:49;;;;;;;;;;;;;;;;;;5089442;28;19908;-68
2023/01/31 01:30:15;;;;;;;;;;;;;;;;;;5089948;28;19912;-67
2023/01/31 01:32:41;;;;;;;;;;;;;;;;;;5082587;28;19912;-68
2023/01/31 01:35:08;;;;;;;;;;;;;;;;;;5089670;28;19915;-69
2023/01/31 01:37:34;;;;;;;;;;;;;;;;;;5089840;28;19924;-69
2023/01/31 01:40:00;;;;;;;;;;;;;;;;;;5089967;28;20292;-67
2023/01/31 01:42:26;;;;;;;;;;;;;;;;;;5088882;28;20064;-68
2023/01/31 01:44:52;;;;;;;;;;;;;;;;;;5089566;28;19919;-70
2023/01/31 01:47:18;;;;;;;;;;;;;;;;;;5089758;28;20025;-69
2023/01/31 01:49:43;;;;;;;;;;;;;;;;;;5089507;28;20388;-68
2023/01/31 01:52:09;;;;;;;;;;;;;;;;;;5089301;28;20285;-70
2023/01/31 01:54:35;;;;;;;;;;;;;;;;;;5089396;28;19908;-69
2023/01/31 01:57:01;;;;;;;;;;;;;;;;;;5089306;28;19915;-71
2023/01/31 01:59:27;;;;;;;;;;;;;;;;;;5088985;28;19912;-71
2023/01/31 02:01:53;;;;;;;;;;;;;;;;;;5089212;28;19912;-70
2023/01/31 02:04:19;;;;;;;;;;;;;;;;;;5089370;28;20273;-71
2023/01/31 02:06:45;;;;;;;;;;;;;;;;;;5089446;28;19916;-70
2023/01/31 02:09:11;;;;;;;;;;;;;;;;;;5089461;28;20288;-70
2023/01/31 02:11:36;;;;;;;;;;;;;;;;;;5070680;28;19970;-72
2023/01/31 02:14:02;;;;;;;;;;;;;;;;;;5089354;28;19923;-71
2023/01/31 02:16:28;;;;;;;;;;;;;;;;;;5089365;28;20011;-71
2023/01/31 02:18:54;;;;;;;;;;;;;;;;;;5088894;28;19908;-69
2023/01/31 02:21:20;;;;;;;;;;;;;;;;;;5092197;28;19912;-68
2023/01/31 02:23:46;;;;;;;;;;;;;;;;;;5093336;28;20006;-70
2023/01/31 02:26:12;;;;;;;;;;;;;;;;;;5093162;28;19916;-69
2023/01/31 02:28:38;;;;;;;;;;;;;;;;;;5075026;28;19963;-69
2023/01/31 02:31:04;;;;;;;;;;;;;;;;;;5093660;28;19911;-70
2023/01/31 02:33:29;;;;;;;;;;;;;;;;;;5074685;28;20273;-71
2023/01/31 02:35:55;;;;;;;;;;;;;;;;;;5093152;28;19915;-71
2023/01/31 02:38:21;;;;;;;;;;;;;;;;;;5092942;28;19969;-71
2023/01/31 02:40:47;;;;;;;;;;;;;;;;;;5092683;28;19908;-70
2023/01/31 02:43:13;;;;;;;;;;;;;;;;;;5092658;28;19908;-70
2023/01/31 02:45:39;;;;;;;;;;;;;;;;;;5093348;28;19911;-67
2023/01/31 02:48:06;;;;;;;;;;;;;;;;;;5092855;28;19948;-69
2023/01/31 02:50:32;;;;;;;;;;;;;;;;;;5092693;28;19912;-69
2023/01/31 02:52:58;;;;;;;;;;;;;;;;;;5093166;28;19912;-70
2023/01/31 02:58:09;;;;;;;;;;;;;;;;;;5093214;28;20024;-68
2023/01/31 03:00:35;;;;;;;;;;;;;;;;;;5092032;28;19951;-69
2023/01/31 03:03:01;;;;;;;;;;;;;;;;;;5092880;28;19919;-67
2023/01/31 03:05:26;;;;;;;;;;;;;;;;;;5092292;28;19908;-70
2023/01/31 03:07:52;;;;;;;;;;;;;;;;;;5092363;28;19908;-69
2023/01/31 03:10:18;;;;;;;;;;;;;;;;;;5092529;28;19912;-69
2023/01/31 03:12:44;;;;;;;;;;;;;;;;;;5092071;28;19915;-69
2023/01/31 03:15:10;;;;;;;;;;;;;;;;;;5092666;28;19916;-69
2023/01/31 03:17:36;;;;;;;;;;;;;;;;;;5092397;28;19924;-68
2023/01/31 03:20:02;;;;;;;;;;;;;;;;;;5092074;28;20445;-69
2023/01/31 03:22:28;;;;;;;;;;;;;;;;;;5092226;28;20026;-70
2023/01/31 03:24:54;;;;;;;;;;;;;;;;;;5092348;28;20354;-70
2023/01/31 03:27:20;;;;;;;;;;;;;;;;;;5091758;28;19912;-70
2023/01/31 03:29:46;;;;;;;;;;;;;;;;;;5091958;28;20304;-69
2023/01/31 03:32:12;;;;;;;;;;;;;;;;;;5091596;28;20006;-71
2023/01/31 03:34:38;;;;;;;;;;;;;;;;;;5092084;28;20404;-68
2023/01/31 03:37:03;;;;;;;;;;;;;;;;;;5091538;28;19916;-68
2023/01/31 03:39:29;;;;;;;;;;;;;;;;;;5091698;28;19908;-70
2023/01/31 03:41:55;;;;;;;;;;;;;;;;;;5091842;28;19999;-71
2023/01/31 03:44:21;;;;;;;;;;;;;;;;;;5091950;28;19963;-70
2023/01/31 03:46:47;;;;;;;;;;;;;;;;;;5091984;28;19912;-70
2023/01/31 03:49:13;;;;;;;;;;;;;;;;;;5091806;28;20374;-69
2023/01/31 03:51:39;;;;;;;;;;;;;;;;;;5091493;28;19908;-70
2023/01/31 03:54:05;;;;;;;;;;;;;;;;;;5092665;28;19978;-71
2023/01/31 03:56:31;;;;;;;;;;;;;;;;;;5091679;28;19912;-71
2023/01/31 03:58:57;;;;;;;;;;;;;;;;;;5093219;28;19916;-69
2023/01/31 04:01:23;;;;;;;;;;;;;;;;;;5093135;28;19912;-70
2023/01/31 04:03:49;;;;;;;;;;;;;;;;;;5091493;28;19912;-70
2023/01/31 04:06:15;;;;;;;;;;;;;;;;;;5091188;28;19912;-69
2023/01/31 04:08:42;;;;;;;;;;;;;;;;;;5091177;28;20269;-69
2023/01/31 04:11:08;;;;;;;;;;;;;;;;;;5091249;28;19912;-70
2023/01/31 04:13:34;;;;;;;;;;;;;;;;;;5072887;28;19918;-69
2023/01/31 04:15:59;;;;;;;;;;;;;;;;;;5091425;28;20342;-69
2023/01/31 04:18:25;;;;;;;;;;;;;;;;;;5091015;28;19923;-70
2023/01/31 04:20:51;;;;;;;;;;;;;;;;;;5091198;28;19939;-70
2023/01/31 04:23:17;;;;;;;;;;;;;;;;;;5091096;28;20398;-70
2023/01/31 04:25:43;;;;;;;;;;;;;;;;;;5090806;28;20410;-68
2023/01/31 04:28:09;;;;;;;;;;;;;;;;;;5090926;28;19912;-69
2023/01/31 04:30:35;;;;;;;;;;;;;;;;;;5090605;28;19940;-71
2023/01/31 04:33:01;;;;;;;;;;;;;;;;;;5090727;28;19915;-69
2023/01/31 04:35:27;;;;;;;;;;;;;;;;;;5090636;28;19927;-71
2023/01/31 04:37:53;;;;;;;;;;;;;;;;;;5091038;28;20019;-72
2023/01/31 04:40:18;;;;;;;;;;;;;;;;;;5090559;28;19977;-71
2023/01/31 04:42:45;;;;;;;;;;;;;;;;;;5089476;28;19920;-71
2023/01/31 04:45:11;;;;;;;;;;;;;;;;;;5090625;28;19912;-71
2023/01/31 04:47:36;;;;;;;;;;;;;;;;;;5090769;28;19908;-67
2023/01/31 04:50:02;;;;;;;;;;;;;;;;;;5090008;28;19923;-68
2023/01/31 04:52:28;;;;;;;;;;;;;;;;;;5089820;28;19908;-66
2023/01/31 04:54:54;;;;;;;;;;;;;;;;;;5090318;28;19908;-67
2023/01/31 04:57:20;;;;;;;;;;;;;;;;;;5090266;28;19927;-69
2023/01/31 04:59:46;;;;;;;;;;;;;;;;;;5090233;28;20721;-69
2023/01/31 05:02:13;;;;;;;;;;;;;;;;;;5090332;28;19947;-72
2023/01/31 05:04:39;;;;;;;;;;;;;;;;;;5089974;28;19915;-71
2023/01/31 05:07:05;;;;;;;;;;;;;;;;;;5083760;28;19912;-71
2023/01/31 05:09:31;;;;;;;;;;;;;;;;;;5089990;28;19943;-71
2023/01/31 05:11:57;;;;;;;;;;;;;;;;;;5090089;28;20061;-70
2023/01/31 05:14:23;;;;;;;;;;;;;;;;;;5090651;28;19912;-71
2023/01/31 05:16:49;;;;;;;;;;;;;;;;;;5090083;28;20360;-70
2023/01/31 05:19:15;;;;;;;;;;;;;;;;;;5089837;28;19912;-71
2023/01/31 05:21:59;;;;;;;;;;;;;;;;;;5089967;28;20440;-71
2023/01/31 05:24:25;;;;;;;;;;;;;;;;;;5089901;28;20404;-71
2023/01/31 05:26:55;;;;;;;;;;;;;;;;;;5089703;28;19909;-71
2023/01/31 05:29:21;;;;;;;;;;;;;;;;;;5083954;28;19912;-71
2023/01/31 05:31:47;;;;;;;;;;;;;;;;;;5089887;28;19923;-71
2023/01/31 05:34:14;;;;;;;;;;;;;;;;;;5089240;28;20290;-71
2023/01/31 05:36:41;;;;;;;;;;;;;;;;;;5089626;28;19954;-71
2023/01/31 05:39:07;;;;;;;;;;;;;;;;;;5089960;28;19915;-70
2023/01/31 05:41:32;;;;;;;;;;;;;;;;;;5089560;28;19912;-70
2023/01/31 05:43:58;;;;;;;;;;;;;;;;;;5089419;28;19912;-70
2023/01/31 05:46:24;;;;;;;;;;;;;;;;;;5089978;28;19912;-70
2023/01/31 05:48:50;;;;;;;;;;;;;;;;;;5089168;28;19908;-69
2023/01/31 05:51:16;;;;;;;;;;;;;;;;;;5088878;28;19994;-68
2023/01/31 05:53:42;;;;;;;;;;;;;;;;;;5089712;28;19955;-70
2023/01/31 05:56:08;;;;;;;;;;;;;;;;;;5089373;28;19981;-70
2023/01/31 05:58:34;;;;;;;;;;;;;;;;;;5089266;28;19917;-69
2023/01/31 06:01:00;;;;;;;;;;;;;;;;;;5089487;28;20378;-70
2023/01/31 06:03:25;;;;;;;;;;;;;;;;;;5088894;28;19908;-70
2023/01/31 06:05:51;;;;;;;;;;;;;;;;;;5089470;28;19908;-70
2023/01/31 06:08:17;;;;;;;;;;;;;;;;;;5089529;28;19908;-70
2023/01/31 06:10:43;;;;;;;;;;;;;;;;;;5089147;28;20825;-70
2023/01/31 06:13:09;;;;;;;;;;;;;;;;;;5089448;28;19909;-71
2023/01/31 06:15:36;;;;;;;;;;;;;;;;;;5089344;28;19952;-70
2023/01/31 06:18:02;;;;;;;;;;;;;;;;;;5088671;28;19966;-70
2023/01/31 06:20:28;;;;;;;;;;;;;;;;;;5089138;28;19983;-71
2023/01/31 06:22:54;;;;;;;;;;;;;;;;;;5088779;28;19924;-71
2023/01/31 06:25:20;;;;;;;;;;;;;;;;;;5089154;28;19995;-71
2023/01/31 06:27:46;;;;;;;;;;;;;;;;;;5089409;28;19912;-71
2023/01/31 06:30:12;;;;;;;;;;;;;;;;;;5089042;28;20036;-71
2023/01/31 06:32:38;;;;;;;;;;;;;;;;;;5088386;28;19999;-70
2023/01/31 06:35:04;;;;;;;;;;;;;;;;;;5088812;28;20394;-70
2023/01/31 06:37:29;;;;;;;;;;;;;;;;;;5089216;28;19931;-72
2023/01/31 06:39:55;;;;;;;;;;;;;;;;;;5082339;28;20419;-72
2023/01/31 06:42:21;;;;;;;;;;;;;;;;;;5089085;28;19912;-72
2023/01/31 06:44:47;;;;;;;;;;;;;;;;;;5088771;28;19938;-70
2023/01/31 06:47:13;;;;;;;;;;;;;;;;;;5088433;28;20304;-72
2023/01/31 06:49:39;;;;;;;;;;;;;;;;;;5088609;28;19991;-71
2023/01/31 06:52:05;;;;;;;;;;;;;;;;;;5070780;28;19916;-71
2023/01/31 06:54:31;;;;;;;;;;;;;;;;;;5088568;28;19912;-71
2023/01/31 06:56:57;;;;;;;;;;;;;;;;;;5089326;28;20031;-70
2023/01/31 06:59:23;;;;;;;;;;;;;;;;;;5088366;28;20355;-70
2023/01/31 07:01:48;;;;;;;;;;;;;;;;;;5088530;28;19908;-69
2023/01/31 07:04:14;;;;;;;;;;;;;;;;;;5089058;28;20343;-71
2023/01/31 07:06:40;;;;;;;;;;;;;;;;;;5089768;28;19908;-71
2023/01/31 07:09:06;;;;;;;;;;;;;;;;;;5092648;28;20735;-70
2023/01/31 07:11:32;;;;;;;;;;;;;;;;;;5092661;28;19939;-71
2023/01/31 07:13:58;;;;;;;;;;;;;;;;;;5092612;28;20846;-74
2023/01/31 07:16:24;;;;;;;;;;;;;;;;;;5091361;28;19913;-71
2023/01/31 07:18:50;;;;;;;;;;;;;;;;;;5092517;28;19916;-71
2023/01/31 07:21:16;;;;;;;;;;;;;;;;;;5091832;28;19912;-70
2023/01/31 07:23:44;;;;;;;;;;;;;;;;;;5091876;28;20388;-71
2023/01/31 07:26:10;;;;;;;;;;;;;;;;;;5092054;28;20379;-71
2023/01/31 07:28:36;;;;;;;;;;;;;;;;;;5092012;28;19948;-72
2023/01/31 07:31:02;;;;;;;;;;;;;;;;;;5091700;28;19935;-71
2023/01/31 07:33:29;;;;;;;;;;;;;;;;;;5091921;28;19974;-72
2023/01/31 07:35:54;;;;;;;;;;;;;;;;;;5092065;28;19912;-72
2023/01/31 07:38:20;;;;;;;;;;;;;;;;;;5091954;28;19916;-72
2023/01/31 07:40:46;;;;;;;;;;;;;;;;;;5091673;28;19974;-72
2023/01/31 07:43:12;;;;;;;;;;;;;;;;;;5091174;28;20370;-71
2023/01/31 07:45:38;;;;;;;;;;;;;;;;;;5084806;28;19919;-72
2023/01/31 07:48:05;;;;;;;;;;;;;;;;;;5091292;28;19916;-72
2023/01/31 07:50:31;;;;;;;;;;;;;;;;;;5091072;28;20288;-71
2023/01/31 07:52:57;;;;;;;;;;;;;;;;;;5091323;28;19915;-71
2023/01/31 07:55:23;;;;;;;;;;;;;;;;;;5091801;28;19934;-69
2023/01/31 07:57:49;;;;;;;;;;;;;;;;;;5091046;28;20431;-70
2023/01/31 08:05:44;;;;;;;;;;;;;;;;;;5090077;28;19927;-69
2023/01/31 08:08:10;;;;;;;;;;;;;;;;;;5090624;28;20287;-69
2023/01/31 08:10:36;;;;;;;;;;;;;;;;;;5091137;28;19919;-72
2023/01/31 08:13:02;;;;;;;;;;;;;;;;;;5073048;28;19997;-69
2023/01/31 08:15:28;;;;;;;;;;;;;;;;;;5091948;28;19909;-69
2023/01/31 08:17:54;;;;;;;;;;;;;;;;;;5090764;28;19973;-62
2023/01/31 08:20:20;;;;;;;;;;;;;;;;;;5091086;28;19959;-61
2023/01/31 08:22:46;;;;;;;;;;;;;;;;;;5090902;28;19908;-62
2023/01/31 08:25:11;;;;;;;;;;;;;;;;;;5091033;28;19948;-62
2023/01/31 08:27:37;;;;;;;;;;;;;;;;;;5087382;28;20029;-62
2023/01/31 08:30:03;;;;;;;;;;;;;;;;;;5090164;28;19919;-63
2023/01/31 08:32:29;;;;;;;;;;;;;;;;;;5071841;28;20332;-62
2023/01/31 08:34:55;;;;;;;;;;;;;;;;;;5090521;28;19920;-64
2023/01/31 08:37:21;;;;;;;;;;;;;;;;;;5083828;28;19989;-63
2023/01/31 08:39:47;;;;;;;;;;;;;;;;;;5064588;28;20059;-63
2023/01/31 08:42:13;;;;;;;;;;;;;;;;;;5079884;28;19931;-61
2023/01/31 08:44:39;;;;;;;;;;;;;;;;;;5084029;28;19913;-63
2023/01/31 08:47:05;;;;;;;;;;;;;;;;;;5086465;28;19965;-63
2023/01/31 08:49:35;;;;;;;;;;;;;;;;;;5084385;28;20412;-62
2023/01/31 08:52:01;;;;;;;;;;;;;;;;;;5085052;28;19922;-62
2023/01/31 08:54:27;;;;;;;;;;;;;;;;;;5088224;28;20015;-63
2023/01/31 08:56:53;;;;;;;;;;;;;;;;;;5086539;28;19950;-62
2023/01/31 08:59:19;;;;;;;;;;;;;;;;;;5083634;28;19916;-62
2023/01/31 09:01:45;;;;;;;;;;;;;;;;;;5085335;28;19923;-63
2023/01/31 09:04:11;;;;;;;;;;;;;;;;;;5079525;28;19917;-63
2023/01/31 09:06:37;;;;;;;;;;;;;;;;;;5087473;28;19976;-63
2023/01/31 09:09:03;;;;;;;;;;;;;;;;;;5081473;28;20028;-63
2023/01/31 09:11:29;;;;;;;;;;;;;;;;;;5086089;28;19957;-61
2023/01/31 09:13:55;;;;;;;;;;;;;;;;;;5081058;28;20046;-64
2023/01/31 09:16:21;;;;;;;;;;;;;;;;;;5087735;28;19916;-62
2023/01/31 09:18:46;;;;;;;;;;;;;;;;;;5084647;28;20077;-61
2023/01/31 09:21:13;;;;;;;;;;;;;;;;;;5086038;28;19916;-62
2023/01/31 09:23:39;;;;;;;;;;;;;;;;;;5082961;28;20409;-62
2023/01/31 09:26:04;;;;;;;;;;;;;;;;;;5086498;28;19990;-61
2023/01/31 09:28:30;;;;;;;;;;;;;;;;;;5082439;28;19916;-62
2023/01/31 09:30:56;;;;;;;;;;;;;;;;;;5083140;28;19916;-62
2023/01/31 09:33:22;;;;;;;;;;;;;;;;;;5085243;28;19924;-62
2023/01/31 09:35:48;;;;;;;;;;;;;;;;;;5083017;28;19920;-63
2023/01/31 09:38:14;;;;;;;;;;;;;;;;;;5085332;28;19923;-62
2023/01/31 09:40:40;;;;;;;;;;;;;;;;;;5082602;28;19913;-63
2023/01/31 09:43:06;;;;;;;;;;;;;;;;;;5087056;28;20026;-63
2023/01/31 09:45:32;;;;;;;;;;;;;;;;;;5079532;28;19924;-63
2023/01/31 09:47:57;;;;;;;;;;;;;;;;;;5085261;28;19916;-64
2023/01/31 09:50:23;;;;;;;;;;;;;;;;;;5081094;28;19916;-63
2023/01/31 09:52:49;;;;;;;;;;;;;;;;;;5087077;28;19922;-64
2023/01/31 09:55:15;;;;;;;;;;;;;;;;;;5078543;28;20018;-62
2023/01/31 09:57:41;;;;;;;;;;;;;;;;;;5087262;28;19931;-64
2023/01/31 10:00:07;;;;;;;;;;;;;;;;;;5080214;28;20384;-65
2023/01/31 10:02:33;;;;;;;;;;;;;;;;;;5086834;28;19916;-63
2023/01/31 10:04:59;;;;;;;;;;;;;;;;;;5080744;28;19923;-62
2023/01/31 10:07:25;;;;;;;;;;;;;;;;;;5086822;28;19920;-64
2023/01/31 10:09:51;;;;;;;;;;;;;;;;;;5081251;28;20006;-64
2023/01/31 10:12:16;;;;;;;;;;;;;;;;;;5085133;28;19977;-63
2023/01/31 10:14:42;;;;;;;;;;;;;;;;;;5082660;28;20007;-64
2023/01/31 10:17:08;;;;;;;;;;;;;;;;;;5081852;28;19920;-64
2023/01/31 10:19:34;;;;;;;;;;;;;;;;;;5083926;28;19924;-63
2023/01/31 10:22:00;;;;;;;;;;;;;;;;;;5080030;28;19916;-63
2023/01/31 10:24:27;;;;;;;;;;;;;;;;;;5086199;28;19919;-64
2023/01/31 10:26:53;;;;;;;;;;;;;;;;;;5067555;28;19916;-63
2023/01/31 10:29:19;;;;;;;;;;;;;;;;;;5085195;28;19923;-64
2023/01/31 10:31:45;;;;;;;;;;;;;;;;;;5079930;28;19912;-63
2023/01/31 10:34:11;;;;;;;;;;;;;;;;;;5086926;28;19920;-63
2023/01/31 10:36:37;;;;;;;;;;;;;;;;;;5080310;28;20357;-64
2023/01/31 10:39:03;;;;;;;;;;;;;;;;;;5086511;28;19977;-63
2023/01/31 10:41:28;;;;;;;;;;;;;;;;;;5080262;28;19916;-63
2023/01/31 10:43:54;;;;;;;;;;;;;;;;;;5090668;28;19922;-64
2023/01/31 10:46:20;;;;;;;;;;;;;;;;;;5084816;28;19916;-63
2023/01/31 10:48:46;;;;;;;;;;;;;;;;;;5090818;28;19913;-64
2023/01/31 10:51:12;;;;;;;;;;;;;;;;;;5084378;28;19969;-64
2023/01/31 10:53:38;;;;;;;;;;;;;;;;;;5086113;28;19917;-63
2023/01/31 10:56:04;;;;;;;;;;;;;;;;;;5085719;28;20497;-64
2023/01/31 10:58:30;;;;;;;;;;;;;;;;;;5086671;28;19928;-65
2023/01/31 11:00:56;;;;;;;;;;;;;;;;;;5088159;28;19977;-63
2023/01/31 11:03:22;;;;;;;;;;;;;;;;;;5084063;28;20664;-63
2023/01/31 11:05:48;;;;;;;;;;;;;;;;;;5089083;28;20463;-64
2023/01/31 11:08:14;;;;;;;;;;;;;;;;;;5086205;28;19917;-63
2023/01/31 11:10:40;;;;;;;;;;;;;;;;;;5089821;28;19916;-62
2023/01/31 11:13:08;;;;;;;;;;;;;;;;;;5084021;28;19916;-62
2023/01/31 11:15:34;;;;;;;;;;;;;;;;;;5089571;28;20414;-64
2023/01/31 11:18:00;;;;;;;;;;;;;;;;;;5080745;28;19920;-64
2023/01/31 11:20:26;;;;;;;;;;;;;;;;;;5090531;28;20687;-63
2023/01/31 11:22:52;;;;;;;;;;;;;;;;;;5083627;28;19920;-63
2023/01/31 11:25:18;;;;;;;;;;;;;;;;;;5088211;28;19923;-64
2023/01/31 11:27:44;;;;;;;;;;;;;;;;;;5084003;28;19916;-64
2023/01/31 11:30:09;;;;;;;;;;;;;;;;;;5088514;28;20406;-63
2023/01/31 11:32:35;;;;;;;;;;;;;;;;;;5084641;28;19916;-62
2023/01/31 11:35:05;;;;;;;;;;;;;;;;;;5089003;28;20384;-62
2023/01/31 11:37:31;;;;;;;;;;;;;;;;;;5086407;28;20045;-62
2023/01/31 11:39:57;;;;;;;;;;;;;;;;;;5085421;28;20438;-63
2023/01/31 11:42:23;;;;;;;;;;;;;;;;;;5084080;28;20371;-63
2023/01/31 11:44:49;;;;;;;;;;;;;;;;;;5085322;28;20017;-64
2023/01/31 11:47:14;;;;;;;;;;;;;;;;;;5087041;28;20002;-63
2023/01/31 11:49:40;;;;;;;;;;;;;;;;;;5084793;28;20288;-63
2023/01/31 11:52:06;;;;;;;;;;;;;;;;;;5087619;28;19989;-64
2023/01/31 11:54:32;;;;;;;;;;;;;;;;;;5070806;28;19991;-64
2023/01/31 11:56:58;;;;;;;;;;;;;;;;;;5070832;28;19912;-65
2023/01/31 11:59:24;;;;;;;;;;;;;;;;;;5082559;28;19916;-62
2023/01/31 12:01:50;;;;;;;;;;;;;;;;;;5088793;28;19934;-63
2023/01/31 12:04:16;;;;;;;;;;;;;;;;;;5079881;28;19916;-64
2023/01/31 12:06:42;;;;;;;;;;;;;;;;;;5087374;28;20717;-64
2023/01/31 12:09:08;;;;;;;;;;;;;;;;;;5081916;28;19919;-63
2023/01/31 12:11:34;;;;;;;;;;;;;;;;;;5084244;28;20011;-64
2023/01/31 12:14:00;;;;;;;;;;;;;;;;;;5070349;28;19916;-63
2023/01/31 12:16:26;;;;;;;;;;;;;;;;;;5085903;28;19954;-63
2023/01/31 12:18:52;;;;;;;;;;;;;;;;;;5084962;28;19928;-65
2023/01/31 12:21:18;;;;;;;;;;;;;;;;;;5086349;28;19908;-66
2023/01/31 12:23:43;;;;;;;;;;;;;;;;;;5084402;28;19916;-64
2023/01/31 12:26:09;;;;;;;;;;;;;;;;;;5088000;28;19994;-63
2023/01/31 12:28:35;;;;;;;;;;;;;;;;;;5086375;28;20777;-63
2023/01/31 12:31:01;;;;;;;;;;;;;;;;;;5086651;28;19916;-64
2023/01/31 12:33:27;;;;;;;;;;;;;;;;;;5087403;28;19920;-62
2023/01/31 12:35:53;;;;;;;;;;;;;;;;;;5084427;28;19920;-65
2023/01/31 12:38:19;;;;;;;;;;;;;;;;;;5088099;28;19985;-63
2023/01/31 12:40:45;;;;;;;;;;;;;;;;;;5084529;28;19922;-64
2023/01/31 12:43:11;;;;;;;;;;;;;;;;;;5088767;28;20398;-62
2023/01/31 12:45:36;;;;;;;;;;;;;;;;;;5081824;28;19974;-64
2023/01/31 12:48:02;;;;;;;;;;;;;;;;;;5087459;28;19916;-64
2023/01/31 12:50:29;;;;;;;;;;;;;;;;;;5080979;28;19966;-65
2023/01/31 12:52:55;;;;;;;;;;;;;;;;;;5087611;28;20360;-64
2023/01/31 12:55:20;;;;;;;;;;;;;;;;;;5086003;28;19912;-64
2023/01/31 12:57:46;;;;;;;;;;;;;;;;;;5083594;28;19920;-63
2023/01/31 13:00:12;;;;;;;;;;;;;;;;;;5084322;28;19916;-64
2023/01/31 13:02:38;;;;;;;;;;;;;;;;;;5083599;28;20452;-64
2023/01/31 13:05:04;;;;;;;;;;;;;;;;;;5084682;28;19912;-65
2023/01/31 13:07:30;;;;;;;;;;;;;;;;;;5083126;28;19917;-64
2023/01/31 13:09:56;;;;;;;;;;;;;;;;;;5084709;28;19923;-64
2023/01/31 13:12:24;;;;;;;;;;;;;;;;;;5084377;28;19912;-66
2023/01/31 13:14:50;;;;;;;;;;;;;;;;;;5086522;28;20053;-64
2023/01/31 13:17:16;;;;;;;;;;;;;;;;;;5081516;28;20406;-62
2023/01/31 13:19:41;;;;;;;;;;;;;;;;;;5086753;28;19916;-65
2023/01/31 13:22:07;;;;;;;;;;;;;;;;;;5079761;28;20027;-65
2023/01/31 13:24:33;;;;;;;;;;;;;;;;;;5087607;28;19927;-63
2023/01/31 13:27:00;;;;;;;;;;;;;;;;;;5083545;28;19916;-65
2023/01/31 13:29:26;;;;;;;;;;;;;;;;;;5083798;28;20038;-64
2023/01/31 13:31:52;;;;;;;;;;;;;;;;;;5079914;28;19999;-66
2023/01/31 13:34:18;;;;;;;;;;;;;;;;;;5085425;28;20004;-64
2023/01/31 13:36:44;;;;;;;;;;;;;;;;;;5083704;28;19938;-63
2023/01/31 13:39:10;;;;;;;;;;;;;;;;;;5086776;28;19924;-63
2023/01/31 13:41:38;;;;;;;;;;;;;;;;;;5080526;28;19986;-64
2023/01/31 13:44:04;;;;;;;;;;;;;;;;;;5086363;28;19935;-64
2023/01/31 13:46:30;;;;;;;;;;;;;;;;;;5084528;28;19938;-65
2023/01/31 13:48:56;;;;;;;;;;;;;;;;;;5081189;28;20375;-61
2023/01/31 13:51:22;;;;;;;;;;;;;;;;;;5082498;28;19916;-65
2023/01/31 13:53:47;;;;;;;;;;;;;;;;;;5082591;28;19923;-65
2023/01/31 13:56:13;;;;;;;;;;;;;;;;;;5085768;28;19950;-65
2023/01/31 13:58:41;;;;;;;;;;;;;;;;;;5083188;28;19920;-64
2023/01/31 14:01:07;;;;;;;;;;;;;;;;;;5085994;28;19916;-64
2023/01/31 14:03:33;;;;;;;;;;;;;;;;;;5080653;28;19923;-63
2023/01/31 14:05:59;;;;;;;;;;;;;;;;;;5087108;28;19916;-64
2023/01/31 14:08:25;;;;;;;;;;;;;;;;;;5079450;28;19959;-63
2023/01/31 14:10:50;;;;;;;;;;;;;;;;;;5085366;28;19979;-64
2023/01/31 14:13:16;;;;;;;;;;;;;;;;;;5079698;28;19924;-64
2023/01/31 14:15:42;;;;;;;;;;;;;;;;;;5085450;28;19916;-64
2023/01/31 14:18:08;;;;;;;;;;;;;;;;;;5080922;28;20060;-62
2023/01/31 14:20:34;;;;;;;;;;;;;;;;;;5082194;28;19943;-65
2023/01/31 14:23:00;;;;;;;;;;;;;;;;;;5067534;28;20474;-62
2023/01/31 14:25:26;;;;;;;;;;;;;;;;;;5084273;28;19917;-64
2023/01/31 14:27:52;;;;;;;;;;;;;;;;;;5082818;28;20526;-62
2023/01/31 14:30:17;;;;;;;;;;;;;;;;;;5080122;28;19916;-63
2023/01/31 14:32:43;;;;;;;;;;;;;;;;;;5083112;28;20592;-63
2023/01/31 14:35:09;;;;;;;;;;;;;;;;;;5080718;28;20027;-61
2023/01/31 14:37:35;;;;;;;;;;;;;;;;;;5085847;28;20299;-63
2023/01/31 14:40:01;;;;;;;;;;;;;;;;;;5077335;28;19924;-64
2023/01/31 14:42:27;;;;;;;;;;;;;;;;;;5086420;28;20379;-63
2023/01/31 14:44:53;;;;;;;;;;;;;;;;;;5078247;28;19995;-63
2023/01/31 14:47:19;;;;;;;;;;;;;;;;;;5086303;28;19923;-66
2023/01/31 14:49:44;;;;;;;;;;;;;;;;;;5080149;28;20434;-64
2023/01/31 14:52:10;;;;;;;;;;;;;;;;;;5085808;28;19916;-65
2023/01/31 14:54:36;;;;;;;;;;;;;;;;;;5077932;28;20446;-64
2023/01/31 14:57:02;;;;;;;;;;;;;;;;;;5085551;28;19935;-62
2023/01/31 14:59:28;;;;;;;;;;;;;;;;;;5079220;28;20015;-63
2023/01/31 15:01:54;;;;;;;;;;;;;;;;;;5082167;28;19920;-64
2023/01/31 15:04:21;;;;;;;;;;;;;;;;;;5068100;28;19938;-63
2023/01/31 15:06:46;;;;;;;;;;;;;;;;;;5082254;28;19917;-63
2023/01/31 15:09:12;;;;;;;;;;;;;;;;;;5085107;28;19912;-63
2023/01/31 15:11:39;;;;;;;;;;;;;;;;;;5083242;28;20284;-64
2023/01/31 15:14:05;;;;;;;;;;;;;;;;;;5082827;28;20338;-62
2023/01/31 15:16:31;;;;;;;;;;;;;;;;;;5077904;28;19969;-63
2023/01/31 15:18:57;;;;;;;;;;;;;;;;;;5084310;28;19928;-63
2023/01/31 15:21:23;;;;;;;;;;;;;;;;;;5079605;28;19940;-63
2023/01/31 15:23:49;;;;;;;;;;;;;;;;;;5085781;28;19916;-63
2023/01/31 15:26:15;;;;;;;;;;;;;;;;;;5073752;28;19924;-64
2023/01/31 15:28:41;;;;;;;;;;;;;;;;;;5087726;28;19915;-63
2023/01/31 15:31:07;;;;;;;;;;;;;;;;;;5080779;28;19969;-62
2023/01/31 15:33:33;;;;;;;;;;;;;;;;;;5090067;28;19920;-63
2023/01/31 15:35:59;;;;;;;;;;;;;;;;;;5082933;28;19916;-61
2023/01/31 15:38:24;;;;;;;;;;;;;;;;;;5086971;28;20023;-65
2023/01/31 15:40:50;;;;;;;;;;;;;;;;;;5082837;28;19998;-65
2023/01/31 15:43:16;;;;;;;;;;;;;;;;;;5087610;28;20473;-64
2023/01/31 15:45:42;;;;;;;;;;;;;;;;;;5080187;28;19923;-65
2023/01/31 15:48:08;;;;;;;;;;;;;;;;;;5085764;28;19998;-66
2023/01/31 15:50:34;;;;;;;;;;;;;;;;;;5067796;28;20572;-66
2023/01/31 15:53:00;;;;;;;;;;;;;;;;;;5083977;28;19912;-65
2023/01/31 15:55:26;;;;;;;;;;;;;;;;;;5087822;28;20451;-67
2023/01/31 15:57:55;;;;;;;;;;;;;;;;;;5069924;28;19920;-63
2023/01/31 16:00:21;;;;;;;;;;;;;;;;;;5089091;28;20400;-65
2023/01/31 16:02:47;;;;;;;;;;;;;;;;;;5080262;28;19951;-64
2023/01/31 16:05:13;;;;;;;;;;;;;;;;;;5089029;28;19915;-64
2023/01/31 16:07:39;;;;;;;;;;;;;;;;;;5083495;28;19916;-64
2023/01/31 16:10:04;;;;;;;;;;;;;;;;;;5089540;28;19971;-66
2023/01/31 16:12:31;;;;;;;;;;;;;;;;;;5078916;28;19926;-64
2023/01/31 16:14:58;;;;;;;;;;;;;;;;;;5089004;28;19956;-64
2023/01/31 16:17:24;;;;;;;;;;;;;;;;;;5083232;28;19920;-62
2023/01/31 16:19:50;;;;;;;;;;;;;;;;;;5089276;28;19920;-64
2023/01/31 16:22:16;;;;;;;;;;;;;;;;;;5082499;28;20016;-65
2023/01/31 16:24:42;;;;;;;;;;;;;;;;;;5085508;28;19916;-65
2023/01/31 16:27:08;;;;;;;;;;;;;;;;;;5082677;28;19923;-62
2023/01/31 16:29:34;;;;;;;;;;;;;;;;;;5084612;28;19917;-64
2023/01/31 16:32:00;;;;;;;;;;;;;;;;;;5068983;28;19916;-64
2023/01/31 16:34:26;;;;;;;;;;;;;;;;;;5088939;28;19978;-65
2023/01/31 16:36:52;;;;;;;;;;;;;;;;;;5090367;28;19912;-66
2023/01/31 16:39:18;;;;;;;;;;;;;;;;;;5088445;28;19924;-65
2023/01/31 16:41:44;;;;;;;;;;;;;;;;;;5086792;28;20404;-65
2023/01/31 16:44:10;;;;;;;;;;;;;;;;;;5089433;28;19916;-64